Time;durP1;ratioP1;P1;durP2;ratioP2;P2;SDS_P1;SDS_P2;PMS_P1;PMS_P2;Temp;Humidity;BMP_temperature;BMP_pressure;BME280_temperature;BME280_humidity;BME280_pressure;Samples;Min_cycle;Max_cycle;Signal;HPM_P1;HPM_P2
2024/01/29 00:01:42;;;;;;;14.77;14.27;;;4.90;99.90;;;;;;5049911;28;20991;-70
2024/01/29 00:04:09;;;;;;;14.90;14.40;;;4.90;99.90;;;;;;5052272;28;20539;-70
2024/01/29 00:06:37;;;;;;;14.77;14.27;;;4.90;99.90;;;;;;5054776;28;20463;-71
2024/01/29 00:09:05;;;;;;;14.70;14.20;;;4.90;99.90;;;;;;5046717;28;20464;-69
2024/01/29 00:11:33;;;;;;;14.63;14.13;;;4.90;99.90;;;;;;5050115;28;20550;-70
2024/01/29 00:14:00;;;;;;;15.00;14.50;;;4.80;99.90;;;;;;5046989;28;20463;-70
2024/01/29 00:16:29;;;;;;;14.90;14.40;;;4.70;99.90;;;;;;5054744;28;20440;-71
2024/01/29 00:18:56;;;;;;;14.70;14.20;;;4.70;99.90;;;;;;5057288;28;20463;-71
2024/01/29 00:21:24;;;;;;;14.60;14.10;;;4.70;99.90;;;;;;5044318;28;20978;-70
2024/01/29 00:23:50;;;;;;;15.20;14.70;;;4.70;99.90;;;;;;5056738;28;20818;-70
2024/01/29 00:29:13;;;;;;;14.70;14.20;;;4.60;99.90;;;;;;5052074;28;20450;-71
2024/01/29 00:31:41;;;;;;;14.37;13.87;;;4.70;99.90;;;;;;5053070;28;20464;-69
2024/01/29 00:34:09;;;;;;;14.37;13.87;;;4.70;99.90;;;;;;5047935;28;20494;-72
2024/01/29 00:36:36;;;;;;;14.60;14.10;;;4.70;99.90;;;;;;5051609;28;20464;-70
2024/01/29 00:39:08;;;;;;;14.93;14.43;;;4.70;99.90;;;;;;5051582;28;20467;-71
2024/01/29 00:41:35;;;;;;;14.80;14.30;;;4.70;99.90;;;;;;5044185;28;20977;-70
2024/01/29 00:44:02;;;;;;;14.80;14.30;;;4.70;99.90;;;;;;5052540;28;20478;-69
2024/01/29 00:46:30;;;;;;;14.70;14.20;;;4.70;99.90;;;;;;5049710;28;20468;-70
2024/01/29 00:48:59;;;;;;;14.30;13.80;;;4.70;99.90;;;;;;5055846;28;20860;-70
2024/01/29 00:51:25;;;;;;;14.70;14.20;;;4.70;99.90;;;;;;5058715;28;20452;-70
2024/01/29 00:53:52;;;;;;;13.70;13.30;;;4.70;99.90;;;;;;5056402;28;20519;-69
2024/01/29 00:56:19;;;;;;;14.60;14.10;;;4.60;99.90;;;;;;5063032;28;20470;-71
2024/01/29 00:58:47;;;;;;;14.93;14.43;;;4.60;99.90;;;;;;5051521;28;20497;-69
2024/01/29 01:01:13;;;;;;;14.60;14.10;;;4.70;99.90;;;;;;5057546;28;20463;-71
2024/01/29 01:03:40;;;;;;;14.50;14.00;;;4.70;99.90;;;;;;5050127;28;20471;-71
2024/01/29 01:06:10;;;;;;;14.80;14.30;;;4.70;99.90;;;;;;5057519;28;20462;-70
2024/01/29 01:08:37;;;;;;;14.57;14.07;;;4.70;99.90;;;;;;5058062;28;20451;-71
2024/01/29 01:11:04;;;;;;;14.97;14.47;;;4.80;99.90;;;;;;5053236;28;20467;-70
2024/01/29 01:13:31;;;;;;;14.90;14.40;;;4.90;99.90;;;;;;5049083;28;20491;-71
2024/01/29 01:15:58;;;;;;;14.70;14.20;;;4.90;99.90;;;;;;5054686;28;20476;-70
2024/01/29 01:18:25;;;;;;;14.53;14.03;;;4.90;99.90;;;;;;5056981;28;20480;-70
2024/01/29 01:20:53;;;;;;;14.40;13.90;;;4.90;99.90;;;;;;5053462;28;20466;-71
2024/01/29 01:23:21;;;;;;;14.13;13.67;;;5.00;99.90;;;;;;5054507;28;20514;-70
2024/01/29 01:25:48;;;;;;;14.30;13.80;;;5.10;99.90;;;;;;5053205;28;20467;-70
2024/01/29 01:28:15;;;;;;;14.70;14.20;;;5.10;99.90;;;;;;5050483;28;20474;-71
2024/01/29 01:30:42;;;;;;;14.73;14.23;;;5.10;99.90;;;;;;5054473;28;20457;-71
2024/01/29 01:33:09;;;;;;;14.73;14.23;;;5.10;99.90;;;;;;5068711;28;20459;-71
2024/01/29 01:35:35;;;;;;;14.80;14.30;;;5.10;99.90;;;;;;5057900;28;20464;-71
2024/01/29 01:38:03;;;;;;;14.23;13.73;;;5.10;99.90;;;;;;5054444;28;20499;-70
2024/01/29 01:40:32;;;;;;;14.83;14.33;;;5.20;99.90;;;;;;5052721;28;20468;-71
2024/01/29 01:42:59;;;;;;;14.83;14.33;;;5.30;99.90;;;;;;5055011;28;20930;-70
2024/01/29 01:45:28;;;;;;;14.37;13.90;;;5.30;99.90;;;;;;5055085;28;20971;-71
2024/01/29 01:47:55;;;;;;;14.47;13.97;;;5.30;99.90;;;;;;5051464;28;20456;-72
2024/01/29 01:50:22;;;;;;;15.10;14.60;;;5.30;99.90;;;;;;5054723;28;20465;-71
2024/01/29 01:52:50;;;;;;;14.73;14.23;;;5.40;99.90;;;;;;5051706;28;20467;-71
2024/01/29 01:55:17;;;;;;;14.53;14.03;;;5.40;99.90;;;;;;5049866;28;20864;-71
2024/01/29 01:57:46;;;;;;;14.63;14.13;;;5.40;99.90;;;;;;5053158;28;20488;-71
2024/01/29 02:00:14;;;;;;;14.83;14.33;;;5.40;99.90;;;;;;5046250;28;20461;-71
2024/01/29 02:02:41;;;;;;;14.87;14.37;;;5.50;99.90;;;;;;5051505;28;20461;-70
2024/01/29 02:05:09;;;;;;;14.60;14.10;;;5.50;99.90;;;;;;5057311;28;20478;-71
2024/01/29 02:07:35;;;;;;;14.87;14.37;;;5.50;99.90;;;;;;5052376;28;20466;-71
2024/01/29 02:10:04;;;;;;;14.90;14.40;;;5.50;99.90;;;;;;5049296;28;20475;-71
2024/01/29 02:12:31;;;;;;;14.20;13.80;;;5.60;99.90;;;;;;5047870;28;20468;-71
2024/01/29 02:14:59;;;;;;;14.67;14.17;;;5.60;99.90;;;;;;5055439;28;20551;-70
2024/01/29 02:17:26;;;;;;;15.10;14.60;;;5.60;99.90;;;;;;5056001;28;20475;-71
2024/01/29 02:19:53;;;;;;;15.00;14.50;;;5.70;99.90;;;;;;5058266;28;20464;-70
2024/01/29 02:22:19;;;;;;;14.90;14.40;;;5.60;99.90;;;;;;5063869;28;20459;-70
2024/01/29 02:24:47;;;;;;;15.30;14.80;;;5.60;99.90;;;;;;5047039;28;20465;-69
2024/01/29 02:27:14;;;;;;;14.53;14.03;;;5.60;99.90;;;;;;5056198;28;20472;-71
2024/01/29 02:29:41;;;;;;;14.90;14.40;;;5.60;99.90;;;;;;5059271;28;20453;-71
2024/01/29 02:32:09;;;;;;;15.20;14.70;;;5.70;99.90;;;;;;5052901;28;20476;-71
2024/01/29 02:34:36;;;;;;;15.20;14.70;;;5.70;99.90;;;;;;5053721;28;20468;-71
2024/01/29 02:37:03;;;;;;;14.90;14.40;;;5.70;99.90;;;;;;5050668;28;20604;-71
2024/01/29 02:39:30;;;;;;;15.20;14.70;;;5.70;99.90;;;;;;5053979;28;20455;-71
2024/01/29 02:41:58;;;;;;;15.20;14.70;;;5.70;99.90;;;;;;5055015;28;20460;-70
2024/01/29 02:44:25;;;;;;;14.67;14.17;;;5.60;99.90;;;;;;5049274;28;20470;-71
2024/01/29 02:46:51;;;;;;;15.00;14.50;;;5.60;99.90;;;;;;5060472;28;20799;-71
2024/01/29 02:49:18;;;;;;;14.77;14.27;;;5.60;99.90;;;;;;5049265;28;20475;-69
2024/01/29 02:51:45;;;;;;;14.90;14.40;;;5.50;99.90;;;;;;5054235;28;20482;-71
2024/01/29 02:54:12;;;;;;;15.00;14.50;;;5.40;99.90;;;;;;5056122;28;20488;-71
2024/01/29 02:56:39;;;;;;;14.97;14.47;;;5.40;99.90;;;;;;5051101;28;20510;-70
2024/01/29 02:59:07;;;;;;;14.77;14.27;;;5.40;99.90;;;;;;5062521;28;20497;-71
2024/01/29 03:01:34;;;;;;;14.93;14.43;;;5.30;99.90;;;;;;5054341;28;22937;-70
2024/01/29 03:04:01;;;;;;;15.10;14.60;;;5.30;99.90;;;;;;5055802;28;20468;-71
2024/01/29 03:06:28;;;;;;;15.07;14.57;;;5.20;99.90;;;;;;5058552;28;20464;-71
2024/01/29 03:08:55;;;;;;;15.03;14.53;;;5.20;99.90;;;;;;5055541;28;20459;-70
2024/01/29 03:11:21;;;;;;;15.60;15.10;;;5.30;99.90;;;;;;5050877;28;20470;-71
2024/01/29 03:13:48;;;;;;;14.53;14.03;;;5.30;99.90;;;;;;5056465;28;20466;-71
2024/01/29 03:16:16;;;;;;;15.10;14.60;;;5.20;99.90;;;;;;5058441;28;20466;-70
2024/01/29 03:18:43;;;;;;;14.80;14.30;;;5.20;99.90;;;;;;5048053;28;20554;-71
2024/01/29 03:21:10;;;;;;;14.97;14.47;;;5.10;99.90;;;;;;5050614;28;21127;-71
2024/01/29 03:23:37;;;;;;;14.67;14.17;;;5.10;99.90;;;;;;5053684;28;20454;-71
2024/01/29 03:26:04;;;;;;;15.10;14.60;;;5.20;99.90;;;;;;5049644;28;20955;-71
2024/01/29 03:28:31;;;;;;;14.60;14.10;;;5.20;99.90;;;;;;5047951;28;20474;-71
2024/01/29 03:30:58;;;;;;;14.50;14.00;;;5.10;99.90;;;;;;5054248;28;20479;-71
2024/01/29 03:33:26;;;;;;;14.80;14.30;;;5.00;99.90;;;;;;5050393;28;20936;-71
2024/01/29 03:35:53;;;;;;;14.63;14.13;;;5.00;99.90;;;;;;5049506;28;20954;-71
2024/01/29 03:38:20;;;;;;;14.50;14.00;;;5.00;99.90;;;;;;5052742;28;20483;-71
2024/01/29 03:40:47;;;;;;;14.33;13.83;;;5.00;99.90;;;;;;5051259;28;20467;-70
2024/01/29 03:43:14;;;;;;;14.40;13.90;;;4.90;99.90;;;;;;5048246;28;20474;-71
2024/01/29 03:45:41;;;;;;;14.70;14.20;;;4.90;99.90;;;;;;5051631;28;20464;-70
2024/01/29 03:48:08;;;;;;;14.30;13.80;;;4.80;99.90;;;;;;5050695;28;20823;-70
2024/01/29 03:50:36;;;;;;;14.70;14.20;;;4.80;99.90;;;;;;5055177;28;20463;-71
2024/01/29 03:53:17;;;;;;;14.70;14.20;;;4.90;99.90;;;;;;5047821;28;20454;-69
2024/01/29 03:55:45;;;;;;;14.40;13.90;;;4.90;99.90;;;;;;5055532;28;20467;-69
2024/01/29 03:58:11;;;;;;;14.50;14.00;;;4.90;99.90;;;;;;5052104;28;20502;-70
2024/01/29 04:00:39;;;;;;;14.70;14.20;;;4.90;99.90;;;;;;5048933;28;20456;-70
2024/01/29 04:03:07;;;;;;;14.73;14.23;;;5.00;99.90;;;;;;5046098;28;20463;-70
2024/01/29 04:05:36;;;;;;;14.27;13.77;;;4.90;99.90;;;;;;5049149;28;20971;-68
2024/01/29 04:08:03;;;;;;;14.90;14.40;;;4.90;99.90;;;;;;5059096;28;20460;-69
2024/01/29 04:10:30;;;;;;;14.70;14.20;;;5.00;99.90;;;;;;5050435;28;20468;-69
2024/01/29 04:12:57;;;;;;;14.90;14.40;;;5.00;99.90;;;;;;5052435;28;20838;-70
2024/01/29 04:15:25;;;;;;;15.00;14.50;;;5.00;99.90;;;;;;5054039;28;20946;-69
2024/01/29 04:17:51;;;;;;;14.90;14.40;;;5.00;99.90;;;;;;5049858;28;20464;-70
2024/01/29 04:20:18;;;;;;;14.90;14.40;;;5.00;99.90;;;;;;5051615;28;20456;-69
2024/01/29 04:22:46;;;;;;;14.33;13.83;;;4.90;99.90;;;;;;5050346;28;20462;-69
2024/01/29 04:25:14;;;;;;;14.47;13.97;;;4.90;99.90;;;;;;5047945;28;20463;-69
2024/01/29 04:27:41;;;;;;;14.60;14.10;;;4.90;99.90;;;;;;5044755;28;20464;-69
2024/01/29 04:30:09;;;;;;;14.70;14.20;;;4.90;99.90;;;;;;5052785;28;20444;-69
2024/01/29 04:32:36;;;;;;;14.53;14.03;;;4.90;99.90;;;;;;5046452;28;20468;-71
2024/01/29 04:35:03;;;;;;;14.70;14.20;;;4.90;99.90;;;;;;5044663;28;20476;-70
2024/01/29 04:37:30;;;;;;;14.60;14.10;;;4.90;99.90;;;;;;5053329;28;21247;-71
2024/01/29 04:39:58;;;;;;;14.60;14.10;;;4.90;99.90;;;;;;5050129;28;20576;-69
2024/01/29 04:42:25;;;;;;;14.47;13.97;;;5.00;99.90;;;;;;5049958;28;20456;-70
2024/01/29 04:44:52;;;;;;;14.53;14.03;;;5.00;99.90;;;;;;5056730;28;20482;-71
2024/01/29 04:47:19;;;;;;;14.53;14.03;;;5.00;99.90;;;;;;5051560;28;20476;-71
2024/01/29 04:49:46;;;;;;;14.90;14.40;;;5.00;99.90;;;;;;5049228;28;20468;-69
2024/01/29 04:52:14;;;;;;;14.40;13.90;;;4.90;99.90;;;;;;5049172;28;20862;-70
2024/01/29 04:54:41;;;;;;;14.30;13.80;;;4.90;99.90;;;;;;5053758;28;20474;-71
2024/01/29 04:57:09;;;;;;;14.40;13.90;;;4.80;99.90;;;;;;5046799;28;20460;-71
2024/01/29 04:59:36;;;;;;;14.37;13.87;;;4.90;99.90;;;;;;5053897;28;20846;-70
2024/01/29 05:02:04;;;;;;;14.43;13.93;;;4.90;99.90;;;;;;5057925;28;20487;-71
2024/01/29 05:04:31;;;;;;;14.40;13.90;;;5.00;99.90;;;;;;5049269;28;20822;-71
2024/01/29 05:06:58;;;;;;;14.83;14.33;;;5.00;99.90;;;;;;5048248;28;20459;-70
2024/01/29 05:09:25;;;;;;;14.60;14.10;;;5.00;99.90;;;;;;5047356;28;20476;-71
2024/01/29 05:11:52;;;;;;;14.83;14.33;;;5.00;99.90;;;;;;5049118;28;20875;-71
2024/01/29 05:14:20;;;;;;;14.60;14.10;;;4.90;99.90;;;;;;5047787;28;20458;-70
2024/01/29 05:16:47;;;;;;;14.50;14.00;;;4.90;99.90;;;;;;5049587;28;20470;-71
2024/01/29 05:19:14;;;;;;;14.80;14.30;;;4.90;99.90;;;;;;5052258;28;20549;-70
2024/01/29 05:21:40;;;;;;;14.50;14.00;;;4.90;99.90;;;;;;5049457;28;20453;-71
2024/01/29 05:24:08;;;;;;;14.70;14.20;;;4.80;99.90;;;;;;5047217;28;20465;-70
2024/01/29 05:26:35;;;;;;;14.67;14.17;;;4.80;99.90;;;;;;5051123;28;20944;-71
2024/01/29 05:29:02;;;;;;;14.80;14.30;;;4.80;99.90;;;;;;5047265;28;20841;-69
2024/01/29 05:31:30;;;;;;;14.70;14.20;;;4.80;99.90;;;;;;5046754;28;20471;-70
2024/01/29 05:33:56;;;;;;;14.53;14.03;;;4.70;99.90;;;;;;5046564;28;21078;-69
2024/01/29 05:36:24;;;;;;;14.90;14.40;;;4.70;99.90;;;;;;5058246;28;20458;-70
2024/01/29 05:38:51;;;;;;;14.53;14.03;;;4.70;99.90;;;;;;5055184;28;20476;-70
2024/01/29 05:41:18;;;;;;;14.53;14.03;;;4.70;99.90;;;;;;5048092;28;20886;-70
2024/01/29 05:43:45;;;;;;;14.07;13.57;;;4.70;99.90;;;;;;5051221;28;20514;-70
2024/01/29 05:46:12;;;;;;;15.10;14.50;;;4.60;99.90;;;;;;5063720;28;20467;-70
2024/01/29 05:48:40;;;;;;;14.40;13.90;;;4.70;99.90;;;;;;5053688;28;20467;-69
2024/01/29 05:51:07;;;;;;;14.30;13.80;;;4.60;99.90;;;;;;5049616;28;20468;-70
2024/01/29 05:53:35;;;;;;;14.40;13.90;;;4.60;99.90;;;;;;5055409;28;20486;-70
2024/01/29 05:56:05;;;;;;;14.80;14.30;;;4.60;99.90;;;;;;5056304;28;20459;-68
2024/01/29 05:58:34;;;;;;;14.70;14.20;;;4.60;99.90;;;;;;5050613;28;21172;-70
2024/01/29 06:01:01;;;;;;;14.87;14.27;;;4.50;99.90;;;;;;5058320;28;20458;-70
2024/01/29 06:03:28;;;;;;;14.87;14.27;;;4.60;99.90;;;;;;5056505;28;20466;-70
2024/01/29 06:05:56;;;;;;;14.50;14.00;;;4.60;99.90;;;;;;5059389;28;20819;-70
2024/01/29 06:08:23;;;;;;;14.90;14.30;;;4.60;99.90;;;;;;5053202;28;20476;-71
2024/01/29 06:10:52;;;;;;;14.20;13.70;;;4.60;99.90;;;;;;5051688;28;20460;-70
2024/01/29 06:13:20;;;;;;;14.47;13.97;;;4.70;99.90;;;;;;5059118;28;20836;-71
2024/01/29 06:15:47;;;;;;;14.60;14.10;;;4.60;99.90;;;;;;5049493;28;20462;-71
2024/01/29 06:18:14;;;;;;;14.87;14.37;;;4.60;99.90;;;;;;5051934;28;20471;-70
2024/01/29 06:20:41;;;;;;;14.83;14.33;;;4.50;99.90;;;;;;5054539;28;20521;-70
2024/01/29 06:23:12;;;;;;;14.30;13.80;;;4.50;99.90;;;;;;5052672;28;20448;-71
2024/01/29 06:25:38;;;;;;;14.40;13.90;;;4.50;99.90;;;;;;5047654;28;20464;-71
2024/01/29 06:28:06;;;;;;;14.67;14.17;;;4.50;99.90;;;;;;5053062;28;20459;-71
2024/01/29 06:30:33;;;;;;;14.60;14.10;;;4.50;99.90;;;;;;5057538;28;20495;-71
2024/01/29 06:33:00;;;;;;;14.60;14.10;;;4.50;99.90;;;;;;5049863;28;20855;-70
2024/01/29 06:35:28;;;;;;;14.40;13.90;;;4.50;99.90;;;;;;5050461;28;20769;-70
2024/01/29 06:37:54;;;;;;;14.53;14.03;;;4.40;99.90;;;;;;5054879;28;20999;-70
2024/01/29 06:40:27;;;;;;;13.87;13.37;;;4.30;99.90;;;;;;5048493;28;20496;-71
2024/01/29 06:42:54;;;;;;;14.10;13.60;;;4.30;99.90;;;;;;5049716;28;20457;-69
2024/01/29 06:45:21;;;;;;;14.17;13.67;;;4.20;99.90;;;;;;5055991;28;20457;-69
2024/01/29 06:47:48;;;;;;;14.00;13.50;;;4.20;99.90;;;;;;5054302;28;20979;-70
2024/01/29 06:50:15;;;;;;;13.60;13.13;;;4.10;99.90;;;;;;5054864;28;21085;-70
2024/01/29 06:52:43;;;;;;;13.23;12.83;;;4.10;99.90;;;;;;5055915;28;20451;-69
2024/01/29 06:55:11;;;;;;;13.40;13.00;;;4.10;99.90;;;;;;5054966;28;20993;-71
2024/01/29 06:57:40;;;;;;;14.10;13.60;;;4.10;99.90;;;;;;5047882;28;20824;-70
2024/01/29 07:00:07;;;;;;;14.00;13.50;;;4.10;99.90;;;;;;5049447;28;20492;-71
2024/01/29 07:02:49;;;;;;;13.70;13.20;;;4.00;99.90;;;;;;5055561;28;21291;-71
2024/01/29 07:05:17;;;;;;;12.90;12.50;;;4.00;99.90;;;;;;5054746;28;20471;-70
2024/01/29 07:07:43;;;;;;;13.40;13.00;;;4.00;99.90;;;;;;5052802;28;20847;-69
2024/01/29 07:10:10;;;;;;;12.70;12.30;;;4.00;99.90;;;;;;5054230;28;20901;-70
2024/01/29 07:12:39;;;;;;;12.47;12.07;;;4.00;99.90;;;;;;5051658;28;20464;-69
2024/01/29 07:15:07;;;;;;;12.57;12.17;;;3.90;99.90;;;;;;5047228;28;20825;-69
2024/01/29 07:17:33;;;;;;;13.00;12.60;;;3.80;99.90;;;;;;5054944;28;20460;-71
2024/01/29 07:20:02;;;;;;;12.53;12.13;;;3.80;99.90;;;;;;5043325;28;20506;-70
2024/01/29 07:22:36;;;;;;;12.20;11.80;;;3.80;99.90;;;;;;5042075;28;20472;-71
2024/01/29 07:25:05;;;;;;;12.27;11.87;;;3.70;99.90;;;;;;5047810;28;20467;-69
2024/01/29 07:27:32;;;;;;;12.40;12.00;;;3.80;99.90;;;;;;5049073;28;20455;-69
2024/01/29 07:30:00;;;;;;;12.03;11.73;;;3.70;99.90;;;;;;5044438;28;20968;-72
2024/01/29 07:32:31;;;;;;;12.43;12.03;;;3.60;99.90;;;;;;5047225;28;21051;-71
2024/01/29 07:35:00;;;;;;;12.30;11.90;;;3.60;99.90;;;;;;5049749;28;20475;-71
2024/01/29 07:37:27;;;;;;;12.40;12.00;;;3.60;99.90;;;;;;5047650;28;20495;-71
2024/01/29 07:39:54;;;;;;;12.40;12.00;;;3.60;99.90;;;;;;5050115;28;20497;-70
2024/01/29 07:42:21;;;;;;;11.63;11.33;;;3.60;99.90;;;;;;5048204;28;20467;-71
2024/01/29 07:44:47;;;;;;;11.70;11.40;;;3.50;99.90;;;;;;5045289;28;20522;-71
2024/01/29 07:47:16;;;;;;;12.33;11.93;;;3.50;99.90;;;;;;5049491;28;20459;-70
2024/01/29 07:49:43;;;;;;;12.23;11.83;;;3.50;99.90;;;;;;5046155;28;20867;-71
2024/01/29 07:52:10;;;;;;;12.30;11.90;;;3.50;99.90;;;;;;5046841;28;20470;-70
2024/01/29 07:54:37;;;;;;;12.30;11.90;;;3.50;99.90;;;;;;5046310;28;20490;-70
2024/01/29 07:57:04;;;;;;;11.87;11.57;;;3.50;99.90;;;;;;5049734;28;20860;-71
2024/01/29 07:59:31;;;;;;;11.70;11.40;;;3.60;99.90;;;;;;5043731;28;20495;-69
2024/01/29 08:01:58;;;;;;;11.90;11.60;;;3.60;99.90;;;;;;5048169;28;20609;-69
2024/01/29 08:04:27;;;;;;;11.60;11.30;;;3.60;99.90;;;;;;5046409;28;20471;-69
2024/01/29 08:06:54;;;;;;;12.30;11.90;;;3.70;99.90;;;;;;5051448;28;21243;-70
2024/01/29 08:09:21;;;;;;;12.20;11.80;;;3.90;99.90;;;;;;5046949;28;20464;-71
2024/01/29 08:11:47;;;;;;;12.03;11.67;;;4.00;99.90;;;;;;5044300;28;20459;-70
2024/01/29 08:14:14;;;;;;;11.97;11.67;;;4.00;99.90;;;;;;5043447;28;20460;-70
2024/01/29 08:16:41;;;;;;;12.30;11.90;;;4.10;99.90;;;;;;5049741;28;20468;-69
2024/01/29 08:19:08;;;;;;;12.30;11.90;;;4.20;99.90;;;;;;5046849;28;20460;-70
2024/01/29 08:21:37;;;;;;;12.23;11.83;;;4.30;99.90;;;;;;5042628;28;20470;-70
2024/01/29 08:24:04;;;;;;;12.80;12.40;;;4.40;99.90;;;;;;5046655;28;20477;-70
2024/01/29 08:26:31;;;;;;;12.97;12.57;;;4.50;99.90;;;;;;5044274;28;20464;-70
2024/01/29 08:28:58;;;;;;;12.53;12.13;;;4.60;99.90;;;;;;5048851;28;20456;-69
2024/01/29 08:31:25;;;;;;;13.23;12.83;;;4.70;99.90;;;;;;5039013;28;20464;-69
2024/01/29 08:33:52;;;;;;;13.23;12.83;;;4.80;99.90;;;;;;5048899;28;20465;-69
2024/01/29 08:36:21;;;;;;;13.67;13.17;;;5.00;99.90;;;;;;5048102;28;20538;-69
2024/01/29 08:38:52;;;;;;;14.10;13.60;;;5.20;99.90;;;;;;5047451;28;20455;-69
2024/01/29 08:41:20;;;;;;;13.70;13.20;;;5.30;99.90;;;;;;5042413;28;20496;-69
2024/01/29 08:43:48;;;;;;;14.43;13.93;;;5.40;99.90;;;;;;5045252;28;20553;-69
2024/01/29 08:46:15;;;;;;;14.90;14.30;;;5.40;99.90;;;;;;5046722;28;20477;-71
2024/01/29 08:48:42;;;;;;;14.67;14.17;;;5.60;99.90;;;;;;5044208;28;20814;-70
2024/01/29 08:51:09;;;;;;;15.30;14.70;;;5.70;99.90;;;;;;5050802;28;20878;-71
2024/01/29 08:53:38;;;;;;;15.20;14.60;;;5.80;99.90;;;;;;5047559;28;20487;-71
2024/01/29 08:56:09;;;;;;;14.83;14.23;;;5.90;99.90;;;;;;5045741;28;21026;-70
2024/01/29 08:58:35;;;;;;;15.30;14.70;;;6.00;99.90;;;;;;5047727;28;21166;-71
2024/01/29 09:01:02;;;;;;;15.37;14.77;;;6.20;99.90;;;;;;5048984;28;20493;-71
2024/01/29 09:03:29;;;;;;;15.13;14.53;;;6.30;99.90;;;;;;5044291;28;20465;-70
2024/01/29 09:05:56;;;;;;;15.57;14.97;;;6.50;99.90;;;;;;5046559;28;20771;-71
2024/01/29 09:08:22;;;;;;;15.70;15.10;;;6.60;99.90;;;;;;5044591;28;20844;-69
2024/01/29 09:10:50;;;;;;;15.73;15.13;;;6.70;99.90;;;;;;5050330;28;20467;-69
2024/01/29 09:13:18;;;;;;;15.57;14.97;;;6.80;99.90;;;;;;5049781;28;20468;-72
2024/01/29 09:15:45;;;;;;;15.47;14.87;;;6.90;99.90;;;;;;5053479;28;20465;-70
2024/01/29 09:18:12;;;;;;;15.50;14.90;;;7.00;99.90;;;;;;5053164;28;20832;-71
2024/01/29 09:20:40;;;;;;;16.27;15.57;;;7.10;99.90;;;;;;5047784;28;20499;-70
2024/01/29 09:23:07;;;;;;;15.93;15.33;;;7.30;99.90;;;;;;5050315;28;20470;-71
2024/01/29 09:25:34;;;;;;;15.57;14.97;;;7.40;99.90;;;;;;5050299;28;20524;-68
2024/01/29 09:28:01;;;;;;;15.70;15.10;;;7.50;99.90;;;;;;5050105;28;20469;-70
2024/01/29 09:30:29;;;;;;;15.80;15.20;;;7.60;99.90;;;;;;5047654;28;20460;-70
2024/01/29 09:32:56;;;;;;;15.80;15.20;;;7.70;99.90;;;;;;5051045;28;20840;-69
2024/01/29 09:35:24;;;;;;;15.80;15.20;;;7.70;99.90;;;;;;5049307;28;20473;-70
2024/01/29 09:37:51;;;;;;;15.83;15.23;;;7.70;99.90;;;;;;5051961;28;20551;-70
2024/01/29 09:40:18;;;;;;;15.80;15.20;;;7.90;99.90;;;;;;5048050;28;21026;-69
2024/01/29 09:42:51;;;;;;;16.10;15.50;;;8.10;99.90;;;;;;5050135;28;20476;-68
2024/01/29 09:45:23;;;;;;;15.60;15.00;;;8.10;99.90;;;;;;5051242;28;20461;-69
2024/01/29 09:47:53;;;;;;;15.43;14.83;;;8.20;99.90;;;;;;5045852;28;20465;-70
2024/01/29 09:50:23;;;;;;;15.80;15.20;;;8.20;99.90;;;;;;5049640;28;20557;-70
2024/01/29 09:52:52;;;;;;;15.67;15.07;;;8.30;99.90;;;;;;5047153;28;20469;-69
2024/01/29 09:55:18;;;;;;;16.20;15.60;;;8.40;99.90;;;;;;5043595;28;20879;-70
2024/01/29 09:57:45;;;;;;;16.10;15.50;;;8.40;99.90;;;;;;5049357;28;20490;-68
2024/01/29 10:00:13;;;;;;;15.83;15.23;;;8.50;99.90;;;;;;5048957;28;20744;-71
2024/01/29 10:02:42;;;;;;;16.20;15.60;;;8.60;99.90;;;;;;5047991;28;20466;-70
2024/01/29 10:05:12;;;;;;;16.50;15.80;;;8.70;99.90;;;;;;5047412;28;20473;-70
2024/01/29 10:07:40;;;;;;;16.33;15.63;;;8.70;99.90;;;;;;5052244;28;20478;-70
2024/01/29 10:10:09;;;;;;;16.40;15.70;;;8.90;99.90;;;;;;5047394;28;20506;-70
2024/01/29 10:12:36;;;;;;;15.83;15.23;;;9.00;99.90;;;;;;5048028;28;20464;-70
2024/01/29 10:15:03;;;;;;;15.70;15.10;;;9.00;99.90;;;;;;5050035;28;20467;-71
2024/01/29 10:17:30;;;;;;;15.80;15.20;;;9.10;99.90;;;;;;5050732;28;20482;-69
2024/01/29 10:19:56;;;;;;;16.10;15.50;;;9.10;99.90;;;;;;5048737;28;20486;-69
2024/01/29 10:22:26;;;;;;;16.40;15.70;;;9.30;99.90;;;;;;5047281;28;20482;-70
2024/01/29 10:25:01;;;;;;;16.57;15.87;;;9.40;99.90;;;;;;5048282;28;20496;-71
2024/01/29 10:27:28;;;;;;;16.37;15.67;;;9.40;99.90;;;;;;5051764;28;20477;-70
2024/01/29 10:29:54;;;;;;;17.03;16.33;;;9.40;99.90;;;;;;5049797;28;20476;-71
2024/01/29 10:32:21;;;;;;;16.60;15.90;;;9.50;99.90;;;;;;5049297;28;20462;-69
2024/01/29 10:34:49;;;;;;;16.23;15.63;;;9.60;99.90;;;;;;5046627;28;20474;-70
2024/01/29 10:37:17;;;;;;;15.73;15.13;;;9.70;99.90;;;;;;5048518;28;20878;-69
2024/01/29 10:39:45;;;;;;;15.83;15.23;;;9.80;99.90;;;;;;5045886;28;21647;-71
2024/01/29 10:42:14;;;;;;;15.80;15.20;;;9.90;99.90;;;;;;5049557;28;20859;-69
2024/01/29 10:44:42;;;;;;;15.60;15.00;;;10.00;99.90;;;;;;5051313;28;20449;-71
2024/01/29 10:47:14;;;;;;;15.77;15.17;;;10.20;99.90;;;;;;5049474;28;20470;-70
2024/01/29 10:49:43;;;;;;;15.77;15.17;;;10.30;99.90;;;;;;5044719;28;20963;-71
2024/01/29 10:52:12;;;;;;;15.40;14.80;;;10.40;99.90;;;;;;5048426;28;20891;-70
2024/01/29 10:54:40;;;;;;;15.60;15.00;;;10.40;99.90;;;;;;5050137;28;20487;-70
2024/01/29 10:57:10;;;;;;;15.63;15.03;;;10.50;99.90;;;;;;5045532;28;20465;-71
2024/01/29 10:59:38;;;;;;;15.60;15.00;;;10.50;99.90;;;;;;5050244;28;20496;-70
2024/01/29 11:02:06;;;;;;;15.87;15.27;;;10.60;99.90;;;;;;5049396;28;21026;-70
2024/01/29 11:04:32;;;;;;;15.57;14.97;;;10.80;99.90;;;;;;5048640;28;20470;-71
2024/01/29 11:07:06;;;;;;;15.47;14.87;;;11.10;99.90;;;;;;5048629;28;20474;-71
2024/01/29 11:09:34;;;;;;;15.40;14.80;;;11.60;99.90;;;;;;5045093;28;20624;-70
2024/01/29 11:12:02;;;;;;;15.67;15.07;;;12.00;99.90;;;;;;5049313;28;20470;-70
2024/01/29 11:14:30;;;;;;;15.40;14.80;;;12.40;99.90;;;;;;5046457;28;20460;-71
2024/01/29 11:16:57;;;;;;;15.83;15.23;;;12.70;99.90;;;;;;5050413;28;20469;-70
2024/01/29 11:19:26;;;;;;;15.60;15.00;;;13.20;99.90;;;;;;5044286;28;20472;-71
2024/01/29 11:21:53;;;;;;;15.30;14.70;;;13.60;99.90;;;;;;5049080;28;20495;-71
2024/01/29 11:24:22;;;;;;;15.00;14.40;;;14.10;99.90;;;;;;5049996;28;20491;-71
2024/01/29 11:26:49;;;;;;;15.23;14.63;;;14.50;99.90;;;;;;5046767;28;20464;-71
2024/01/29 11:29:19;;;;;;;15.47;14.87;;;14.60;99.90;;;;;;5050036;28;20465;-70
2024/01/29 11:31:51;;;;;;;15.23;14.63;;;14.90;99.90;;;;;;5044196;28;20465;-71
2024/01/29 11:34:26;;;;;;;15.30;14.70;;;15.00;99.90;;;;;;5048296;28;20468;-71
2024/01/29 11:36:54;;;;;;;14.60;14.10;;;15.30;99.90;;;;;;5046722;28;20468;-70
2024/01/29 11:39:24;;;;;;;14.23;13.73;;;15.40;99.90;;;;;;5049357;28;22083;-72
2024/01/29 11:41:53;;;;;;;14.33;13.83;;;15.60;99.90;;;;;;5044204;28;20489;-70
2024/01/29 11:44:21;;;;;;;14.37;13.87;;;15.50;99.90;;;;;;5049377;28;20498;-71
2024/01/29 11:46:51;;;;;;;15.27;14.67;;;15.80;99.90;;;;;;5047830;28;20567;-71
2024/01/29 11:49:25;;;;;;;15.23;14.63;;;16.30;99.90;;;;;;5045988;28;20476;-71
2024/01/29 11:51:54;;;;;;;14.77;14.27;;;16.50;99.90;;;;;;5044104;28;20488;-70
2024/01/29 11:54:22;;;;;;;14.70;14.20;;;16.60;99.90;;;;;;5047335;28;20493;-72
2024/01/29 11:57:04;;;;;;;14.30;13.80;;;16.80;99.90;;;;;;5043429;28;20559;-72
2024/01/29 11:59:31;;;;;;;14.33;13.83;;;16.80;99.90;;;;;;5049315;28;20817;-71
2024/01/29 12:02:01;;;;;;;14.43;13.93;;;16.80;99.90;;;;;;5045864;28;20501;-72
2024/01/29 12:04:28;;;;;;;14.50;14.00;;;16.60;99.90;;;;;;5050745;28;20604;-71
2024/01/29 12:06:54;;;;;;;15.00;14.40;;;16.80;99.90;;;;;;5049927;28;20470;-71
2024/01/29 12:09:23;;;;;;;14.93;14.40;;;16.80;99.90;;;;;;5039953;28;20836;-72
2024/01/29 12:11:49;;;;;;;14.90;14.40;;;16.40;99.90;;;;;;5042806;28;21098;-71
2024/01/29 12:14:17;;;;;;;14.80;14.30;;;16.80;99.90;;;;;;5046977;28;20491;-72
2024/01/29 12:16:44;;;;;;;14.50;14.00;;;16.90;99.90;;;;;;5050105;28;20797;-69
2024/01/29 12:19:12;;;;;;;14.97;14.47;;;17.00;99.90;;;;;;5043024;28;20465;-70
2024/01/29 12:21:41;;;;;;;14.57;14.07;;;17.30;99.90;;;;;;5043020;28;20746;-71
2024/01/29 12:24:09;;;;;;;14.57;14.07;;;17.70;99.90;;;;;;5046376;28;20592;-70
2024/01/29 12:26:38;;;;;;;14.73;14.23;;;17.90;99.90;;;;;;5045206;28;20470;-71
2024/01/29 12:29:05;;;;;;;14.50;14.00;;;17.60;99.90;;;;;;5046632;28;20503;-71
2024/01/29 12:31:32;;;;;;;14.70;14.20;;;17.70;99.90;;;;;;5048489;28;20477;-71
2024/01/29 12:33:59;;;;;;;14.60;14.10;;;18.10;99.90;;;;;;5046897;28;20473;-71
2024/01/29 12:36:27;;;;;;;15.03;14.43;;;17.70;99.90;;;;;;5048196;28;20465;-70
2024/01/29 12:38:57;;;;;;;14.60;14.10;;;17.50;99.90;;;;;;5046298;28;20539;-71
2024/01/29 12:41:24;;;;;;;14.60;14.10;;;17.40;99.90;;;;;;5045025;28;20590;-70